createdAt,value
2022-12-20T00:02:22.225Z,84.06
2022-12-20T00:04:52.965Z,83.37
2022-12-20T00:07:26.225Z,82.85
2022-12-20T00:09:56.798Z,82.15
2022-12-20T00:12:27.748Z,81.92
2022-12-20T00:14:58.365Z,81.49
2022-12-20T00:17:30.796Z,81.12
2022-12-20T00:20:01.420Z,80.60
2022-12-20T00:22:34.920Z,80.09
2022-12-20T00:25:05.411Z,79.59
2022-12-20T00:27:36.288Z,79.42
2022-12-20T00:30:07.725Z,79.03
2022-12-20T00:32:38.265Z,79.27
2022-12-20T00:35:10.493Z,81.66
2022-12-20T00:37:46.931Z,78.81
2022-12-20T00:40:18.073Z,79.10
2022-12-20T00:42:48.627Z,75.38
2022-12-20T00:45:19.414Z,82.71
2022-12-20T00:47:49.963Z,82.61
2022-12-20T00:50:20.660Z,86.35
2022-12-20T00:52:53.862Z,77.35
2022-12-20T00:55:24.687Z,72.59
2022-12-20T00:57:55.365Z,72.72
2022-12-20T01:00:26.193Z,73.59
2022-12-20T01:02:56.793Z,75.31
2022-12-20T01:05:27.480Z,77.28
2022-12-20T01:08:00.737Z,78.30
2022-12-20T01:10:31.453Z,78.56
2022-12-20T01:13:03.029Z,78.91
2022-12-20T01:15:33.722Z,80.36
2022-12-20T01:18:09.040Z,80.89
2022-12-20T01:20:39.632Z,80.96
2022-12-20T01:23:12.767Z,81.92
2022-12-20T01:25:43.400Z,81.80
2022-12-20T01:28:13.944Z,80.99
2022-12-20T01:30:45.624Z,80.18
2022-12-20T01:33:16.545Z,79.39
2022-12-20T01:35:58.491Z,78.35
2022-12-20T01:38:32.512Z,78.34
2022-12-20T01:41:03.331Z,78.80
2022-12-20T01:43:50.496Z,78.79
2022-12-20T01:46:22.388Z,79.33
2022-12-20T01:48:57.091Z,80.01
2022-12-20T01:51:29.023Z,80.86
2022-12-20T01:54:08.089Z,81.66
2022-12-20T01:56:42.316Z,82.04
2022-12-20T01:59:14.275Z,81.46
2022-12-20T02:01:46.424Z,82.04
2022-12-20T02:04:17.268Z,81.82
2022-12-20T02:06:47.973Z,81.25
2022-12-20T02:09:21.408Z,80.14
2022-12-20T02:12:08.237Z,78.77
2022-12-20T02:14:56.048Z,86.01
2022-12-20T02:17:31.686Z,86.18
2022-12-20T02:20:41.575Z,86.25
2022-12-20T02:23:30.404Z,82.57
2022-12-20T02:26:21.914Z,78.01
2022-12-20T02:29:10.883Z,78.52
2022-12-20T02:31:51.356Z,79.15
2022-12-20T02:34:25.239Z,79.47
2022-12-20T02:36:57.041Z,79.60
2022-12-20T02:39:30.442Z,80.37
2022-12-20T02:42:04.723Z,81.32
2022-12-20T02:44:50.302Z,82.55
2022-12-20T02:47:28.512Z,83.54
2022-12-20T02:50:00.271Z,82.89
2022-12-20T02:52:33.068Z,82.29
2022-12-20T02:55:04.865Z,81.65
2022-12-20T02:57:46.128Z,80.93
2022-12-20T03:00:19.811Z,88.00
2022-12-20T03:03:06.254Z,87.33
2022-12-20T03:05:39.441Z,89.54
2022-12-20T03:08:11.776Z,78.09
2022-12-20T03:10:42.506Z,77.36
2022-12-20T03:13:13.533Z,77.81
2022-12-20T03:15:51.781Z,78.61
2022-12-20T03:18:25.642Z,78.69
2022-12-20T03:20:56.500Z,79.11
2022-12-20T03:23:27.580Z,79.66
2022-12-20T03:25:58.523Z,80.44
2022-12-20T03:28:35.806Z,81.37
2022-12-20T03:31:06.962Z,82.61
2022-12-20T03:33:48.861Z,83.11
2022-12-20T03:36:23.700Z,83.04
2022-12-20T03:38:59.367Z,83.57
2022-12-20T03:41:32.355Z,82.92
2022-12-20T03:44:03.513Z,85.75
2022-12-20T03:46:34.370Z,88.01
2022-12-20T03:49:09.422Z,87.10
2022-12-20T03:51:47.705Z,86.80
2022-12-20T03:54:18.396Z,86.21
2022-12-20T03:57:06.307Z,85.72
2022-12-20T03:59:37.463Z,84.79
2022-12-20T04:02:09.863Z,83.95
2022-12-20T04:04:43.057Z,83.78
2022-12-20T04:07:14.153Z,83.09
2022-12-20T04:09:48.560Z,82.58
2022-12-20T04:12:20.048Z,82.56
2022-12-20T04:14:50.657Z,81.99
2022-12-20T04:17:21.360Z,81.66
2022-12-20T04:19:55.088Z,81.19
2022-12-20T04:22:26.731Z,81.10
2022-12-20T04:25:07.025Z,80.52
2022-12-20T04:27:43.697Z,80.14
2022-12-20T04:30:15.804Z,80.06
2022-12-20T04:32:46.917Z,79.49
2022-12-20T04:35:21.423Z,79.06
2022-12-20T04:37:52.094Z,79.08
2022-12-20T04:40:22.682Z,78.87
2022-12-20T04:42:57.934Z,78.90
2022-12-20T04:45:28.560Z,78.61
2022-12-20T04:48:14.691Z,78.29
2022-12-20T04:50:55.562Z,78.28
2022-12-20T04:53:39.847Z,78.44
2022-12-20T04:56:11.313Z,78.41
2022-12-20T04:58:42.012Z,78.30
2022-12-20T05:01:14.128Z,78.43
2022-12-20T05:03:52.410Z,78.27
2022-12-20T05:06:26.203Z,78.15
2022-12-20T05:08:56.842Z,77.99
2022-12-20T05:11:28.389Z,77.64
2022-12-20T05:13:59.729Z,77.37
2022-12-20T05:16:30.604Z,77.13
2022-12-20T05:19:03.544Z,76.92
2022-12-20T05:21:54.278Z,76.96
2022-12-20T05:24:37.706Z,76.89
2022-12-20T05:27:19.323Z,76.83
2022-12-20T05:29:50.230Z,77.04
2022-12-20T05:32:21.044Z,77.05
2022-12-20T05:34:51.770Z,76.90
2022-12-20T05:37:26.689Z,77.00
2022-12-20T05:39:59.874Z,76.75
2022-12-20T05:42:30.561Z,76.43
2022-12-20T05:45:01.537Z,76.61
2022-12-20T05:47:35.194Z,77.16
2022-12-20T05:50:18.506Z,76.95
2022-12-20T05:53:12.242Z,77.10
2022-12-20T05:55:52.174Z,77.28
2022-12-20T05:58:23.928Z,77.28
2022-12-20T06:01:00.235Z,77.11
2022-12-20T06:03:31.401Z,76.75
2022-12-20T06:06:06.061Z,76.62
2022-12-20T06:08:41.969Z,76.67
2022-12-20T06:11:18.136Z,76.31
2022-12-20T06:13:58.237Z,76.32
2022-12-20T06:16:29.082Z,76.34
2022-12-20T06:19:01.049Z,75.95
2022-12-20T06:21:32.475Z,76.07
2022-12-20T06:24:07.357Z,76.09
2022-12-20T06:26:40.800Z,76.12
2022-12-20T06:29:14.520Z,76.29
2022-12-20T06:31:50.927Z,76.31
2022-12-20T06:34:21.952Z,76.03
2022-12-20T06:36:52.640Z,76.00
2022-12-20T06:39:30.492Z,75.71
2022-12-20T06:42:07.389Z,76.03
2022-12-20T06:44:39.495Z,75.94
2022-12-20T06:47:10.627Z,75.90
2022-12-20T06:49:42.777Z,75.18
2022-12-20T06:52:21.977Z,75.09
2022-12-20T06:54:57.628Z,75.04
2022-12-20T06:57:28.331Z,75.06
2022-12-20T06:59:59.886Z,74.61
2022-12-20T07:02:30.848Z,74.89
2022-12-20T07:05:01.579Z,75.22
2022-12-20T07:07:38.567Z,75.20
2022-12-20T07:10:16.393Z,75.53
2022-12-20T07:12:48.428Z,75.74
2022-12-20T07:15:19.476Z,75.41
2022-12-20T07:17:50.079Z,75.42
2022-12-20T07:20:21.308Z,75.06
2022-12-20T07:22:52.202Z,75.11
2022-12-20T07:25:25.815Z,75.06
2022-12-20T07:27:56.953Z,75.19
2022-12-20T07:30:27.537Z,74.71
2022-12-20T07:32:58.843Z,74.64
2022-12-20T07:35:29.777Z,74.73
2022-12-20T07:38:00.963Z,74.27
2022-12-20T07:40:34.112Z,74.49
2022-12-20T07:43:04.776Z,74.28
2022-12-20T07:45:35.367Z,73.71
2022-12-20T07:48:11.306Z,73.12
2022-12-20T07:50:45.186Z,72.99
2022-12-20T07:53:15.755Z,72.79
2022-12-20T07:55:49.263Z,71.92
2022-12-20T07:58:22.000Z,70.93
2022-12-20T08:00:53.456Z,70.56
2022-12-20T08:03:27.027Z,70.59
2022-12-20T08:06:04.078Z,70.21
2022-12-20T08:08:37.511Z,69.18
2022-12-20T08:11:12.918Z,68.83
2022-12-20T08:13:46.588Z,68.31
2022-12-20T08:16:17.691Z,68.28
2022-12-20T08:18:48.351Z,67.96
2022-12-20T08:21:19.378Z,67.82
2022-12-20T08:23:50.036Z,67.97
2022-12-20T08:26:23.202Z,68.45
2022-12-20T08:28:53.824Z,68.21
2022-12-20T08:31:24.518Z,67.70
2022-12-20T08:33:58.100Z,68.06
2022-12-20T08:36:28.691Z,68.51
2022-12-20T08:38:59.316Z,67.60
2022-12-20T08:41:32.520Z,67.55
2022-12-20T08:44:03.236Z,66.80
2022-12-20T08:46:33.918Z,67.18
2022-12-20T08:49:04.666Z,67.06
2022-12-20T08:51:35.254Z,66.89
2022-12-20T08:54:06.020Z,66.56
2022-12-20T08:56:39.204Z,65.99
2022-12-20T08:59:09.880Z,65.12
2022-12-20T09:01:40.601Z,65.50
2022-12-20T09:04:14.967Z,64.79
2022-12-20T09:06:45.524Z,64.23
2022-12-20T09:09:16.683Z,64.40
2022-12-20T09:11:49.830Z,64.70
2022-12-20T09:14:22.344Z,64.34
2022-12-20T09:16:53.021Z,64.50
2022-12-20T09:19:23.618Z,64.91
2022-12-20T09:21:55.629Z,64.50
2022-12-20T09:24:26.251Z,64.77
2022-12-20T09:27:00.082Z,63.52
2022-12-20T09:29:35.530Z,63.08
2022-12-20T09:32:06.250Z,62.27
2022-12-20T09:34:36.817Z,62.92
2022-12-20T09:37:07.363Z,62.80
2022-12-20T09:39:38.138Z,62.95
2022-12-20T09:42:13.441Z,63.85
2022-12-20T09:44:45.765Z,63.53
2022-12-20T09:47:21.078Z,63.53
2022-12-20T09:49:57.529Z,63.62
2022-12-20T09:52:50.720Z,63.56
2022-12-20T09:55:31.658Z,64.18
2022-12-20T09:58:22.294Z,64.45
2022-12-20T10:00:54.796Z,64.57
2022-12-20T10:03:29.240Z,64.28
2022-12-20T10:06:03.899Z,64.68
2022-12-20T10:08:47.237Z,64.85
2022-12-20T10:11:40.711Z,65.08
2022-12-20T10:14:21.182Z,64.34
2022-12-20T10:16:57.118Z,64.31
2022-12-20T10:19:45.532Z,63.78
2022-12-20T10:22:22.685Z,64.29
2022-12-20T10:25:02.070Z,64.29
2022-12-20T10:27:38.090Z,64.23
2022-12-20T10:30:16.216Z,64.79
2022-12-20T10:32:49.105Z,64.76
2022-12-20T10:35:29.252Z,65.01
2022-12-20T10:38:10.252Z,65.27
2022-12-20T10:43:45.828Z,64.35
2022-12-20T10:46:19.895Z,63.58
2022-12-20T10:48:52.047Z,64.17
2022-12-20T10:51:24.840Z,63.91
2022-12-20T10:54:01.453Z,63.16
2022-12-20T10:56:34.284Z,62.90
2022-12-20T10:59:08.627Z,62.65
2022-12-20T11:01:47.319Z,62.69
2022-12-20T11:04:30.199Z,62.59
2022-12-20T11:07:02.364Z,61.97
2022-12-20T11:09:35.344Z,61.50
2022-12-20T11:12:09.217Z,62.08
2022-12-20T11:14:42.057Z,62.17
2022-12-20T11:17:30.085Z,61.89
2022-12-20T11:20:33.605Z,61.80
2022-12-20T11:23:18.512Z,60.94
2022-12-20T11:26:04.291Z,60.97
2022-12-20T11:28:48.792Z,61.10
2022-12-20T11:31:28.700Z,60.29
2022-12-20T11:34:21.786Z,61.24
2022-12-20T11:37:13.726Z,61.39
2022-12-20T11:39:51.798Z,61.06
2022-12-20T11:42:35.186Z,60.88
2022-12-20T11:45:13.875Z,60.91
2022-12-20T11:48:05.627Z,60.54
2022-12-20T11:50:52.661Z,60.59
2022-12-20T11:53:29.796Z,60.39
2022-12-20T11:56:05.513Z,60.06
2022-12-20T11:58:49.317Z,60.05
2022-12-20T12:01:22.674Z,60.09
2022-12-20T12:04:04.754Z,60.17
2022-12-20T12:06:40.811Z,59.79
2022-12-20T12:09:25.969Z,59.78
2022-12-20T12:12:08.486Z,60.16
2022-12-20T12:14:52.148Z,60.10
2022-12-20T12:17:31.054Z,59.51
2022-12-20T12:20:21.200Z,59.83
2022-12-20T12:23:01.143Z,59.78
2022-12-20T12:25:31.790Z,60.03
2022-12-20T12:28:02.484Z,60.05
2022-12-20T12:30:42.615Z,59.46
2022-12-20T12:33:24.347Z,59.94
2022-12-20T12:36:12.907Z,59.88
2022-12-20T12:39:19.107Z,60.20
2022-12-20T12:42:23.342Z,60.24
2022-12-20T12:44:57.951Z,60.75
2022-12-20T12:47:42.299Z,61.23
2022-12-20T12:50:24.734Z,61.15
2022-12-20T12:52:57.523Z,60.57
2022-12-20T12:55:46.264Z,60.77
2022-12-20T12:58:34.626Z,60.86
2022-12-20T13:01:09.214Z,60.89
2022-12-20T13:03:46.343Z,61.32
2022-12-20T13:06:47.586Z,61.25
2022-12-20T13:09:39.011Z,61.14
2022-12-20T13:12:51.776Z,60.88
2022-12-20T13:15:54.531Z,60.74
2022-12-20T13:18:37.214Z,60.78
2022-12-20T13:21:35.814Z,60.45
2022-12-20T13:24:42.851Z,60.49
2022-12-20T13:27:41.769Z,60.54
2022-12-20T13:30:28.986Z,60.80
2022-12-20T13:33:16.156Z,60.63
2022-12-20T13:36:05.435Z,60.39
2022-12-20T13:39:07.596Z,60.47
2022-12-20T13:41:44.605Z,60.88
2022-12-20T13:44:43.226Z,60.61
2022-12-20T13:47:33.078Z,60.81
2022-12-20T13:50:06.011Z,60.80
2022-12-20T13:52:46.312Z,60.91
2022-12-20T13:55:26.261Z,60.96
2022-12-20T13:57:57.623Z,60.48
2022-12-20T14:00:29.920Z,60.93
2022-12-20T14:03:01.010Z,60.91
2022-12-20T14:05:36.581Z,60.67
2022-12-20T14:08:12.611Z,60.92
2022-12-20T14:10:43.136Z,61.45
2022-12-20T14:13:25.335Z,61.47
2022-12-20T14:15:56.788Z,61.39
2022-12-20T14:18:29.138Z,61.09
2022-12-20T14:21:02.819Z,61.06
2022-12-20T14:23:41.224Z,61.26
2022-12-20T14:26:16.671Z,61.56
2022-12-20T14:28:49.055Z,61.24
2022-12-20T14:31:31.349Z,61.58
2022-12-20T14:34:07.588Z,61.21
2022-12-20T14:36:38.343Z,61.44
2022-12-20T14:39:28.893Z,61.87
2022-12-20T14:42:00.825Z,61.61
2022-12-20T14:44:33.898Z,61.91
2022-12-20T14:47:08.587Z,61.96
2022-12-20T14:49:41.530Z,61.92
2022-12-20T14:52:18.457Z,62.00
2022-12-20T14:55:10.035Z,62.09
2022-12-20T14:57:49.807Z,62.42
2022-12-20T15:00:27.838Z,62.46
2022-12-20T15:03:05.002Z,62.21
2022-12-20T15:05:45.779Z,62.63
2022-12-20T15:08:18.571Z,62.68
2022-12-20T15:11:04.091Z,62.67
2022-12-20T15:13:36.455Z,62.64
2022-12-20T15:16:09.294Z,62.67
2022-12-20T15:18:41.023Z,62.93
2022-12-20T15:21:16.998Z,63.12
2022-12-20T15:23:51.767Z,63.17
2022-12-20T15:26:26.546Z,63.25
2022-12-20T15:28:57.809Z,63.52
2022-12-20T15:31:33.817Z,63.41
2022-12-20T15:34:07.121Z,63.61
2022-12-20T15:36:38.645Z,63.80
2022-12-20T15:39:13.690Z,64.05
2022-12-20T15:41:50.480Z,64.12
2022-12-20T15:44:23.786Z,64.26
2022-12-20T15:46:55.074Z,64.69
2022-12-20T15:49:27.387Z,64.80
2022-12-20T15:51:58.556Z,64.63
2022-12-20T15:54:31.862Z,64.71
2022-12-20T15:57:07.880Z,64.83
2022-12-20T16:02:31.744Z,65.05
2022-12-20T16:05:02.364Z,65.37
2022-12-20T16:07:33.779Z,65.15
2022-12-20T16:10:04.413Z,65.43
2022-12-20T16:12:39.613Z,65.41
2022-12-20T16:15:22.462Z,65.32
2022-12-20T16:17:53.177Z,65.14
2022-12-20T16:20:23.776Z,65.47
2022-12-20T16:22:54.403Z,65.27
2022-12-20T16:25:30.354Z,65.49
2022-12-20T16:28:03.927Z,65.48
2022-12-20T16:30:35.112Z,65.71
2022-12-20T16:33:06.818Z,65.68
2022-12-20T16:35:39.390Z,65.76
2022-12-20T16:38:10.021Z,65.64
2022-12-20T16:40:40.621Z,65.72
2022-12-20T16:43:18.555Z,65.95
2022-12-20T16:45:49.330Z,65.86
2022-12-20T16:48:20.275Z,65.97
2022-12-20T16:50:51.071Z,66.28
2022-12-20T16:53:21.826Z,65.94
2022-12-20T16:55:52.488Z,66.15
2022-12-20T16:58:45.011Z,66.06
2022-12-20T17:01:19.437Z,66.24
2022-12-20T17:03:50.549Z,66.27
2022-12-20T17:06:22.020Z,66.43
2022-12-20T17:08:52.930Z,66.66
2022-12-20T17:11:25.607Z,66.83
2022-12-20T17:13:59.965Z,66.64
2022-12-20T17:16:31.070Z,66.93
2022-12-20T17:19:01.919Z,66.98
2022-12-20T17:24:25.285Z,67.25
2022-12-20T17:26:56.218Z,67.29
2022-12-20T17:29:29.617Z,67.57
2022-12-20T17:32:00.700Z,67.58
2022-12-20T17:34:33.433Z,67.70
2022-12-20T17:37:04.027Z,67.65
2022-12-20T17:39:34.898Z,67.85
2022-12-20T17:42:05.430Z,67.95
2022-12-20T17:44:38.784Z,67.65
2022-12-20T17:47:09.551Z,67.98
2022-12-20T17:49:40.375Z,67.74
2022-12-20T17:52:16.318Z,67.82
2022-12-20T17:54:46.812Z,67.72
2022-12-20T17:57:18.366Z,67.94
2022-12-20T17:59:51.552Z,68.25
2022-12-20T18:02:27.669Z,68.25
2022-12-20T18:04:58.542Z,68.15
2022-12-20T18:07:29.155Z,68.45
2022-12-20T18:09:59.690Z,68.62
2022-12-20T18:12:35.638Z,68.56
2022-12-20T18:15:12.034Z,68.91
2022-12-20T18:17:43.508Z,68.73
2022-12-20T18:20:15.417Z,68.98
2022-12-20T18:22:45.951Z,69.02
2022-12-20T18:25:18.446Z,69.06
2022-12-20T18:27:49.104Z,68.75
2022-12-20T18:30:22.580Z,69.09
2022-12-20T18:32:53.243Z,68.96
2022-12-20T18:35:23.811Z,69.15
2022-12-20T18:37:54.343Z,69.07
2022-12-20T18:40:26.047Z,68.94
2022-12-20T18:42:59.695Z,69.08
2022-12-20T18:45:37.570Z,69.11
2022-12-20T18:48:08.258Z,69.42
2022-12-20T18:50:39.355Z,69.44
2022-12-20T18:53:10.164Z,69.61
2022-12-20T18:55:41.122Z,69.50
2022-12-20T18:58:11.797Z,69.61
2022-12-20T19:00:48.075Z,69.58
2022-12-20T19:03:19.464Z,69.44
2022-12-20T19:05:55.462Z,69.34
2022-12-20T19:08:26.872Z,69.77
2022-12-20T19:11:00.988Z,69.61
2022-12-20T19:13:31.728Z,69.91
2022-12-20T19:16:10.064Z,69.66
2022-12-20T19:18:41.153Z,69.75
2022-12-20T19:21:13.457Z,70.01
2022-12-20T19:23:46.054Z,69.61
2022-12-20T19:26:18.389Z,69.87
2022-12-20T19:28:49.919Z,70.03
2022-12-20T19:31:25.067Z,70.03
2022-12-20T19:33:57.587Z,70.17
2022-12-20T19:36:30.488Z,70.39
2022-12-20T19:39:02.746Z,70.62
2022-12-20T19:41:35.755Z,70.54
2022-12-20T19:44:07.570Z,70.73
2022-12-20T19:46:41.035Z,70.77
2022-12-20T19:49:11.622Z,70.72
2022-12-20T19:51:42.352Z,70.92
2022-12-20T19:54:13.063Z,70.57
2022-12-20T19:56:43.675Z,70.76
2022-12-20T19:59:14.459Z,70.81
2022-12-20T20:01:47.768Z,70.61
2022-12-20T20:04:19.113Z,70.76
2022-12-20T20:06:49.706Z,70.83
2022-12-20T20:09:20.361Z,70.65
2022-12-20T20:11:51.013Z,70.84
2022-12-20T20:14:21.835Z,70.58
2022-12-20T20:16:55.223Z,70.84
2022-12-20T20:19:25.777Z,70.54
2022-12-20T20:21:56.396Z,70.81
2022-12-20T20:24:26.972Z,70.67
2022-12-20T20:26:57.495Z,70.73
2022-12-20T20:29:28.074Z,70.85
2022-12-20T20:32:01.285Z,70.84
2022-12-20T20:34:32.218Z,70.94
2022-12-20T20:37:03.031Z,71.15
2022-12-20T20:39:34.299Z,71.27
2022-12-20T20:42:04.800Z,71.41
2022-12-20T20:44:35.309Z,71.13
2022-12-20T20:47:10.474Z,71.55
2022-12-20T20:49:41.043Z,71.70
2022-12-20T20:52:11.969Z,71.78
2022-12-20T20:54:42.738Z,72.01
2022-12-20T20:57:13.559Z,72.41
2022-12-20T20:59:44.702Z,72.27
2022-12-20T21:02:21.188Z,72.09
2022-12-20T21:05:35.289Z,72.12
2022-12-20T21:07:42.346Z,72.49
2022-12-20T21:10:13.618Z,72.45
2022-12-20T21:12:44.318Z,72.47
2022-12-20T21:15:23.956Z,72.42
2022-12-20T21:17:57.661Z,72.44
2022-12-20T21:20:28.136Z,72.68
2022-12-20T21:22:58.740Z,72.60
2022-12-20T21:25:29.279Z,72.49
2022-12-20T21:28:00.185Z,72.30
2022-12-20T21:30:30.815Z,72.40
2022-12-20T21:33:04.033Z,72.17
2022-12-20T21:35:34.614Z,72.28
2022-12-20T21:38:05.316Z,72.13
2022-12-20T21:40:35.848Z,72.24
2022-12-20T21:43:06.821Z,72.24
2022-12-20T21:45:37.415Z,72.66
2022-12-20T21:48:10.774Z,72.15
2022-12-20T21:50:41.310Z,72.25
2022-12-20T21:53:17.570Z,72.41
2022-12-20T21:55:50.033Z,72.34
2022-12-20T21:58:20.710Z,72.38
2022-12-20T22:00:54.753Z,72.55
2022-12-20T22:03:29.466Z,72.49
2022-12-20T22:06:00.946Z,72.24
2022-12-20T22:08:32.367Z,72.29
2022-12-20T22:11:03.561Z,72.49
2022-12-20T22:13:41.037Z,72.26
2022-12-20T22:16:13.764Z,72.18
2022-12-20T22:18:48.127Z,72.35
2022-12-20T22:21:19.923Z,72.41
2022-12-20T22:23:51.241Z,72.40
2022-12-20T22:26:23.866Z,72.22
2022-12-20T22:28:56.847Z,72.69
2022-12-20T22:31:28.083Z,69.88
2022-12-20T22:34:02.170Z,69.97
2022-12-20T22:36:32.970Z,71.30
2022-12-20T22:39:03.665Z,71.32
2022-12-20T22:41:35.646Z,71.54
2022-12-20T22:44:06.528Z,72.16
2022-12-20T22:46:36.948Z,72.72
2022-12-20T22:49:10.288Z,74.26
2022-12-20T22:51:40.961Z,75.06
2022-12-20T22:54:11.582Z,76.09
2022-12-20T22:56:42.059Z,76.86
2022-12-20T22:59:12.621Z,77.19
2022-12-20T23:01:43.228Z,76.74
2022-12-20T23:04:17.233Z,76.80
2022-12-20T23:06:47.822Z,76.34
2022-12-20T23:09:18.396Z,76.69
2022-12-20T23:12:01.246Z,76.98
2022-12-20T23:14:44.240Z,77.62
2022-12-20T23:17:14.855Z,83.33
2022-12-20T23:20:00.491Z,83.52
2022-12-20T23:22:44.521Z,83.37
2022-12-20T23:25:17.192Z,83.46
2022-12-20T23:27:49.968Z,83.12
2022-12-20T23:30:22.202Z,82.81
2022-12-20T23:32:56.402Z,82.18
2022-12-20T23:35:29.700Z,81.61
2022-12-20T23:38:00.337Z,82.66
2022-12-20T23:40:30.945Z,80.52
2022-12-20T23:43:01.434Z,80.62
2022-12-20T23:45:32.281Z,80.71
2022-12-20T23:48:02.856Z,80.14
2022-12-20T23:50:36.567Z,79.65
2022-12-20T23:53:07.311Z,79.21
2022-12-20T23:55:38.172Z,79.19
2022-12-20T23:58:08.761Z,78.89
